createdAt,value
2023-03-14T00:02:05.631Z,9.85
2023-03-14T00:04:32.419Z,9.83
2023-03-14T00:06:59.094Z,9.84
2023-03-14T00:09:27.524Z,9.89
2023-03-14T00:11:54.722Z,9.89
2023-03-14T00:14:21.411Z,9.86
2023-03-14T00:16:48.226Z,9.87
2023-03-14T00:19:14.876Z,9.83
2023-03-14T00:21:42.590Z,9.83
2023-03-14T00:24:09.538Z,9.83
2023-03-14T00:26:36.282Z,9.89
2023-03-14T00:29:02.921Z,9.92
2023-03-14T00:31:30.124Z,9.92
2023-03-14T00:33:57.350Z,9.99
2023-03-14T00:36:24.693Z,9.95
2023-03-14T00:38:52.672Z,9.94
2023-03-14T00:41:24.016Z,9.93
2023-03-14T00:43:51.501Z,9.96
2023-03-14T00:46:18.129Z,9.97
2023-03-14T00:48:48.344Z,9.99
2023-03-14T00:51:16.393Z,10.07
2023-03-14T00:53:43.730Z,10.05
2023-03-14T00:56:12.968Z,10.04
2023-03-14T00:58:41.222Z,10.06
2023-03-14T01:01:10.695Z,10.01
2023-03-14T01:03:37.271Z,9.95
2023-03-14T01:06:12.899Z,10.03
2023-03-14T01:08:39.772Z,9.98
2023-03-14T01:11:33.038Z,10.03
2023-03-14T01:14:00.579Z,10.09
2023-03-14T01:16:30.237Z,10.14
2023-03-14T01:18:57.140Z,10.07
2023-03-14T01:21:30.906Z,10.05
2023-03-14T01:23:59.171Z,10.03
2023-03-14T01:26:28.126Z,10.08
2023-03-14T01:28:56.195Z,10.08
2023-03-14T01:31:24.325Z,10.07
2023-03-14T01:33:51.185Z,10.06
2023-03-14T01:36:18.062Z,10.08
2023-03-14T01:38:44.838Z,10.07
2023-03-14T01:41:16.787Z,10.06
2023-03-14T01:43:43.415Z,10.08
2023-03-14T01:46:21.002Z,10.03
2023-03-14T01:49:14.968Z,10.03
2023-03-14T01:51:59.644Z,10.08
2023-03-14T01:54:37.128Z,10.04
2023-03-14T01:57:12.252Z,9.99
2023-03-14T01:59:41.514Z,10.01
2023-03-14T02:02:11.164Z,10.02
2023-03-14T02:04:39.457Z,9.99
2023-03-14T02:07:06.070Z,9.97
2023-03-14T02:09:32.835Z,9.96
2023-03-14T02:12:00.270Z,9.96
2023-03-14T02:14:32.854Z,10.00
2023-03-14T02:17:01.029Z,9.98
2023-03-14T02:19:50.910Z,9.90
2023-03-14T02:22:18.609Z,9.93
2023-03-14T02:24:53.166Z,9.90
2023-03-14T02:27:22.027Z,9.75
2023-03-14T02:29:53.790Z,9.79
2023-03-14T02:32:21.775Z,9.78
2023-03-14T02:34:53.573Z,9.83
2023-03-14T02:37:24.270Z,9.83
2023-03-14T02:39:51.100Z,9.85
2023-03-14T02:42:18.573Z,9.83
2023-03-14T02:45:16.709Z,9.77
2023-03-14T02:47:58.784Z,9.79
2023-03-14T02:50:30.561Z,9.78
2023-03-14T02:52:57.215Z,9.83
2023-03-14T02:55:24.852Z,9.84
2023-03-14T02:57:51.577Z,9.81
2023-03-14T03:00:18.671Z,9.84
2023-03-14T03:02:45.349Z,9.86
2023-03-14T03:05:11.923Z,9.81
2023-03-14T03:07:38.570Z,9.78
2023-03-14T03:10:06.015Z,9.82
2023-03-14T03:12:32.772Z,9.82
2023-03-14T03:14:59.382Z,9.83
2023-03-14T03:17:25.979Z,9.81
2023-03-14T03:19:52.607Z,9.82
2023-03-14T03:22:19.207Z,9.77
2023-03-14T03:24:45.906Z,9.73
2023-03-14T03:27:12.567Z,9.76
2023-03-14T03:29:39.133Z,9.78
2023-03-14T03:32:05.860Z,9.84
2023-03-14T03:34:32.418Z,9.78
2023-03-14T03:36:59.129Z,9.79
2023-03-14T03:39:25.762Z,9.77
2023-03-14T03:41:52.409Z,9.80
2023-03-14T03:44:19.181Z,9.79
2023-03-14T03:46:45.774Z,9.80
2023-03-14T03:49:12.533Z,9.77
2023-03-14T03:51:40.894Z,9.79
2023-03-14T03:54:07.544Z,9.77
2023-03-14T03:56:34.287Z,9.83
2023-03-14T03:59:00.956Z,9.76
2023-03-14T04:01:27.663Z,9.71
2023-03-14T04:03:54.519Z,9.74
2023-03-14T04:06:21.568Z,9.70
2023-03-14T04:08:48.288Z,9.70
2023-03-14T04:11:16.080Z,9.66
2023-03-14T04:13:43.824Z,9.66
2023-03-14T04:16:18.229Z,9.66
2023-03-14T04:18:44.874Z,9.64
2023-03-14T04:21:12.001Z,9.59
2023-03-14T04:23:38.682Z,9.54
2023-03-14T04:26:05.556Z,9.41
2023-03-14T04:28:32.848Z,9.32
2023-03-14T04:30:59.482Z,9.20
2023-03-14T04:33:26.088Z,9.19
2023-03-14T04:35:55.395Z,9.17
2023-03-14T04:38:22.070Z,9.13
2023-03-14T04:40:48.686Z,9.12
2023-03-14T04:43:15.309Z,9.03
2023-03-14T04:45:45.126Z,8.94
2023-03-14T04:48:11.921Z,8.86
2023-03-14T04:50:38.548Z,8.84
2023-03-14T04:53:05.647Z,8.85
2023-03-14T04:55:33.619Z,8.79
2023-03-14T04:58:00.560Z,8.79
2023-03-14T05:00:27.266Z,8.76
2023-03-14T05:02:53.898Z,8.83
2023-03-14T05:05:21.314Z,8.80
2023-03-14T05:07:47.940Z,8.77
2023-03-14T05:10:14.543Z,8.81
2023-03-14T05:12:41.166Z,8.81
2023-03-14T05:15:08.600Z,8.79
2023-03-14T05:17:35.265Z,8.74
2023-03-14T05:20:02.185Z,8.80
2023-03-14T05:22:28.806Z,8.80
2023-03-14T05:24:57.791Z,8.77
2023-03-14T05:27:24.448Z,8.82
2023-03-14T05:29:51.165Z,8.78
2023-03-14T05:32:17.790Z,8.85
2023-03-14T05:34:44.364Z,8.89
2023-03-14T05:37:10.973Z,8.96
2023-03-14T05:39:37.631Z,8.95
2023-03-14T05:42:04.285Z,9.06
2023-03-14T05:44:30.877Z,8.99
2023-03-14T05:46:57.749Z,8.99
2023-03-14T05:49:24.587Z,9.10
2023-03-14T05:51:51.194Z,9.13
2023-03-14T05:54:17.826Z,9.08
2023-03-14T05:56:44.502Z,9.15
2023-03-14T05:59:11.298Z,9.07
2023-03-14T06:01:37.933Z,9.09
2023-03-14T06:04:04.687Z,9.07
2023-03-14T06:06:31.260Z,9.15
2023-03-14T06:08:57.896Z,9.15
2023-03-14T06:11:24.680Z,9.13
2023-03-14T06:13:52.279Z,9.13
2023-03-14T06:16:18.963Z,9.18
2023-03-14T06:18:47.788Z,9.11
2023-03-14T06:21:14.363Z,9.12
2023-03-14T06:23:41.079Z,9.10
2023-03-14T06:26:07.846Z,9.17
2023-03-14T06:28:34.478Z,9.10
2023-03-14T06:31:01.765Z,9.16
2023-03-14T06:33:28.376Z,9.24
2023-03-14T06:35:55.090Z,9.31
2023-03-14T06:38:21.786Z,9.35
2023-03-14T06:40:48.515Z,9.31
2023-03-14T06:43:15.144Z,9.36
2023-03-14T06:45:41.850Z,9.36
2023-03-14T06:48:08.540Z,9.34
2023-03-14T06:50:35.154Z,9.32
2023-03-14T06:53:01.988Z,9.28
2023-03-14T06:55:28.821Z,9.39
2023-03-14T06:57:55.483Z,9.34
2023-03-14T07:00:22.614Z,9.35
2023-03-14T07:02:49.210Z,9.35
2023-03-14T07:05:15.836Z,9.36
2023-03-14T07:07:42.522Z,9.40
2023-03-14T07:10:09.915Z,9.38
2023-03-14T07:12:36.977Z,9.42
2023-03-14T07:15:17.053Z,9.41
2023-03-14T07:17:44.592Z,9.46
2023-03-14T07:20:11.676Z,9.43
2023-03-14T07:22:38.286Z,9.49
2023-03-14T07:25:05.393Z,9.49
2023-03-14T07:27:32.032Z,9.48
2023-03-14T07:29:58.641Z,9.51
2023-03-14T07:32:25.607Z,9.58
2023-03-14T07:34:52.285Z,9.63
2023-03-14T07:37:18.875Z,9.63
2023-03-14T07:39:45.478Z,9.64
2023-03-14T07:42:12.149Z,9.67
2023-03-14T07:44:38.752Z,9.64
2023-03-14T07:47:05.423Z,9.63
2023-03-14T07:49:32.019Z,9.64
2023-03-14T07:51:59.274Z,9.66
2023-03-14T07:54:26.179Z,9.71
2023-03-14T07:56:55.572Z,9.73
2023-03-14T07:59:22.085Z,9.76
2023-03-14T08:01:48.795Z,9.86
2023-03-14T08:04:15.558Z,9.81
2023-03-14T08:06:42.303Z,9.87
2023-03-14T08:09:08.966Z,9.95
2023-03-14T08:11:35.748Z,10.05
2023-03-14T08:14:02.382Z,10.18
2023-03-14T08:16:29.335Z,10.31
2023-03-14T08:18:57.153Z,10.21
2023-03-14T08:21:23.981Z,10.17
2023-03-14T08:23:50.598Z,10.20
2023-03-14T08:26:17.305Z,10.24
2023-03-14T08:28:43.860Z,10.26
2023-03-14T08:31:10.514Z,10.25
2023-03-14T08:33:37.160Z,10.16
2023-03-14T08:36:04.006Z,10.07
2023-03-14T08:38:30.577Z,10.08
2023-03-14T08:41:02.080Z,10.04
2023-03-14T08:43:29.382Z,10.07
2023-03-14T08:45:59.751Z,9.98
2023-03-14T08:48:26.680Z,10.03
2023-03-14T08:50:53.329Z,9.91
2023-03-14T08:53:21.913Z,9.98
2023-03-14T08:55:48.561Z,10.03
2023-03-14T08:58:15.154Z,10.02
2023-03-14T09:00:41.770Z,10.08
2023-03-14T09:03:08.390Z,10.04
2023-03-14T09:05:35.547Z,10.03
2023-03-14T09:08:02.557Z,10.12
2023-03-14T09:10:29.515Z,10.14
2023-03-14T09:12:56.199Z,10.03
2023-03-14T09:15:23.417Z,10.07
2023-03-14T09:17:50.044Z,10.05
2023-03-14T09:20:17.036Z,10.06
2023-03-14T09:22:43.724Z,10.08
2023-03-14T09:25:11.758Z,10.15
2023-03-14T09:27:38.407Z,10.25
2023-03-14T09:30:05.540Z,10.22
2023-03-14T09:32:32.939Z,10.15
2023-03-14T09:34:59.987Z,10.18
2023-03-14T09:37:26.891Z,10.24
2023-03-14T09:39:53.504Z,10.28
2023-03-14T09:42:24.478Z,10.22
2023-03-14T09:45:11.937Z,10.18
2023-03-14T09:47:46.254Z,10.20
2023-03-14T09:50:20.369Z,10.16
2023-03-14T09:52:51.943Z,10.07
2023-03-14T09:55:22.781Z,10.07
2023-03-14T09:57:57.996Z,10.21
2023-03-14T10:00:28.848Z,10.15
2023-03-14T10:02:58.103Z,10.35
2023-03-14T10:05:29.000Z,10.25
2023-03-14T10:07:55.642Z,10.26
2023-03-14T10:10:25.455Z,10.45
2023-03-14T10:13:20.492Z,10.48
2023-03-14T10:15:54.394Z,10.39
2023-03-14T10:18:22.888Z,10.34
2023-03-14T10:20:50.937Z,10.25
2023-03-14T10:23:17.518Z,10.49
2023-03-14T10:26:20.875Z,10.40
2023-03-14T10:29:02.214Z,10.54
2023-03-14T10:31:28.970Z,10.73
2023-03-14T10:34:04.709Z,10.74
2023-03-14T10:36:33.946Z,10.81
2023-03-14T10:39:26.843Z,10.90
2023-03-14T10:41:57.373Z,10.96
2023-03-14T10:44:26.753Z,11.15
2023-03-14T10:47:02.861Z,11.26
2023-03-14T10:49:35.850Z,11.09
2023-03-14T10:52:30.890Z,11.44
2023-03-14T10:55:09.968Z,11.51
2023-03-14T10:57:40.785Z,11.37
2023-03-14T11:00:18.077Z,11.66
2023-03-14T11:02:44.665Z,11.67
2023-03-14T11:05:49.825Z,11.77
2023-03-14T11:08:26.148Z,11.86
2023-03-14T11:10:59.254Z,11.66
2023-03-14T11:13:33.564Z,11.93
2023-03-14T11:16:08.718Z,12.02
2023-03-14T11:18:47.402Z,11.73
2023-03-14T11:21:20.404Z,11.75
2023-03-14T11:23:52.809Z,11.89
2023-03-14T11:26:22.084Z,11.92
2023-03-14T11:29:10.089Z,11.96
2023-03-14T11:31:41.512Z,12.01
2023-03-14T11:34:26.444Z,12.45
2023-03-14T11:36:58.651Z,12.27
2023-03-14T11:39:30.298Z,12.60
2023-03-14T11:42:00.779Z,12.36
2023-03-14T11:44:33.817Z,12.19
2023-03-14T11:47:24.810Z,12.17
2023-03-14T11:50:08.841Z,12.06
2023-03-14T11:52:54.648Z,11.89
2023-03-14T11:55:33.237Z,11.90
2023-03-14T11:58:10.120Z,11.86
2023-03-14T12:00:39.764Z,11.72
2023-03-14T12:03:24.931Z,11.57
2023-03-14T12:06:10.878Z,11.43
2023-03-14T12:09:04.439Z,11.54
2023-03-14T12:11:50.068Z,11.39
2023-03-14T12:14:29.697Z,11.38
2023-03-14T12:16:59.509Z,11.53
2023-03-14T12:19:29.148Z,11.40
2023-03-14T12:22:17.404Z,11.31
2023-03-14T12:24:50.148Z,11.49
2023-03-14T12:27:55.274Z,11.45
2023-03-14T12:30:37.410Z,11.69
2023-03-14T12:33:10.053Z,11.60
2023-03-14T12:35:44.564Z,11.53
2023-03-14T12:38:34.697Z,11.43
2023-03-14T12:41:23.153Z,11.83
2023-03-14T12:43:50.301Z,11.80
2023-03-14T12:46:23.679Z,11.67
2023-03-14T12:49:02.560Z,11.62
2023-03-14T12:52:00.625Z,11.60
2023-03-14T12:54:46.037Z,11.39
2023-03-14T12:57:46.062Z,11.24
2023-03-14T13:00:21.919Z,11.09
2023-03-14T13:02:50.303Z,11.07
2023-03-14T13:05:25.666Z,11.12
2023-03-14T13:07:56.128Z,11.03
2023-03-14T13:10:28.035Z,11.03
2023-03-14T13:13:17.378Z,10.95
2023-03-14T13:15:45.596Z,10.94
2023-03-14T13:18:20.658Z,10.82
2023-03-14T13:20:54.436Z,10.87
2023-03-14T13:23:32.422Z,10.66
2023-03-14T13:26:01.483Z,10.56
2023-03-14T13:28:30.560Z,10.27
2023-03-14T13:31:03.199Z,10.01
2023-03-14T13:33:30.189Z,9.87
2023-03-14T13:35:56.869Z,9.81
2023-03-14T13:38:26.141Z,9.62
2023-03-14T13:41:00.223Z,9.49
2023-03-14T13:43:44.768Z,8.83
2023-03-14T13:46:26.492Z,8.42
2023-03-14T13:48:58.003Z,8.29
2023-03-14T13:51:26.249Z,8.36
2023-03-14T13:53:55.993Z,8.26
2023-03-14T13:56:25.440Z,8.26
2023-03-14T13:58:52.254Z,7.97
2023-03-14T14:01:32.704Z,7.94
2023-03-14T14:04:23.305Z,7.81
2023-03-14T14:07:01.355Z,7.93
2023-03-14T14:09:38.300Z,8.02
2023-03-14T14:12:17.497Z,7.96
2023-03-14T14:14:48.159Z,7.86
2023-03-14T14:17:20.246Z,7.52
2023-03-14T14:19:48.152Z,7.39
2023-03-14T14:22:14.939Z,7.23
2023-03-14T14:24:42.504Z,7.07
2023-03-14T14:27:16.756Z,6.96
2023-03-14T14:29:44.984Z,6.95
2023-03-14T14:32:14.919Z,6.79
2023-03-14T14:34:58.362Z,6.71
2023-03-14T14:37:32.194Z,6.47
2023-03-14T14:40:02.375Z,6.20
2023-03-14T14:42:32.080Z,5.82
2023-03-14T14:45:00.139Z,5.78
2023-03-14T14:47:29.123Z,5.73
2023-03-14T14:50:00.824Z,5.71
2023-03-14T14:52:45.236Z,5.48
2023-03-14T14:55:17.783Z,5.42
2023-03-14T14:57:51.953Z,5.28
2023-03-14T15:00:24.946Z,5.06
2023-03-14T15:02:56.142Z,5.18
2023-03-14T15:05:25.423Z,4.93
2023-03-14T15:07:52.207Z,4.87
2023-03-14T15:10:26.725Z,4.88
2023-03-14T15:12:53.822Z,4.68
2023-03-14T15:15:20.953Z,4.76
2023-03-14T15:17:47.682Z,4.71
2023-03-14T15:20:16.983Z,4.57
2023-03-14T15:22:44.166Z,4.33
2023-03-14T15:25:31.584Z,4.34
2023-03-14T15:27:57.912Z,4.43
2023-03-14T15:30:24.553Z,4.32
2023-03-14T15:32:51.233Z,4.43
2023-03-14T15:35:18.042Z,4.42
2023-03-14T15:37:45.478Z,4.42
2023-03-14T15:40:15.136Z,4.43
2023-03-14T15:42:42.300Z,4.43
2023-03-14T15:45:09.955Z,4.50
2023-03-14T15:47:36.685Z,4.53
2023-03-14T15:50:04.317Z,4.44
2023-03-14T15:52:31.021Z,4.49
2023-03-14T15:54:57.634Z,4.65
2023-03-14T15:57:24.469Z,4.57
2023-03-14T15:59:51.376Z,4.64
2023-03-14T16:02:18.109Z,4.51
2023-03-14T16:04:44.880Z,4.51
2023-03-14T16:07:11.715Z,4.54
2023-03-14T16:09:38.433Z,4.40
2023-03-14T16:12:08.876Z,4.35
2023-03-14T16:14:35.634Z,4.29
2023-03-14T16:17:02.377Z,4.20
2023-03-14T16:19:29.333Z,4.20
2023-03-14T16:21:56.028Z,4.28
2023-03-14T16:24:22.735Z,4.22
2023-03-14T16:26:49.424Z,4.18
2023-03-14T16:29:17.131Z,4.20
2023-03-14T16:31:43.876Z,4.15
2023-03-14T16:34:10.904Z,4.11
2023-03-14T16:36:37.744Z,4.02
2023-03-14T16:39:04.725Z,3.98
2023-03-14T16:41:31.797Z,3.85
2023-03-14T16:44:02.031Z,3.81
2023-03-14T16:46:30.496Z,3.66
2023-03-14T16:48:57.412Z,3.61
2023-03-14T16:51:24.688Z,3.50
2023-03-14T16:53:51.532Z,3.47
2023-03-14T16:56:18.513Z,3.41
2023-03-14T16:58:45.270Z,3.47
2023-03-14T17:01:14.419Z,3.43
2023-03-14T17:03:43.624Z,3.46
2023-03-14T17:06:16.368Z,3.27
2023-03-14T17:08:44.657Z,3.29
2023-03-14T17:11:11.778Z,3.24
2023-03-14T17:13:38.970Z,3.28
2023-03-14T17:16:06.466Z,3.23
2023-03-14T17:18:33.369Z,3.19
2023-03-14T17:21:00.824Z,3.17
2023-03-14T17:23:29.523Z,3.13
2023-03-14T17:25:56.223Z,3.06
2023-03-14T17:28:24.698Z,3.06
2023-03-14T17:31:01.033Z,3.05
2023-03-14T17:33:27.743Z,2.94
2023-03-14T17:35:54.490Z,2.93
2023-03-14T17:38:21.194Z,2.86
2023-03-14T17:40:48.813Z,2.84
2023-03-14T17:43:16.062Z,2.84
2023-03-14T17:45:43.615Z,2.80
2023-03-14T17:48:11.255Z,2.77
2023-03-14T17:50:38.730Z,2.70
2023-03-14T17:53:05.577Z,2.68
2023-03-14T17:55:32.218Z,2.65
2023-03-14T17:57:59.100Z,2.66
2023-03-14T18:00:25.798Z,2.65
2023-03-14T18:02:53.076Z,2.68
2023-03-14T18:05:19.798Z,2.66
2023-03-14T18:07:46.476Z,2.65
2023-03-14T18:10:14.359Z,2.66
2023-03-14T18:12:41.125Z,2.69
2023-03-14T18:15:08.352Z,2.70
2023-03-14T18:17:35.073Z,2.70
2023-03-14T18:20:01.760Z,2.71
2023-03-14T18:22:28.416Z,2.75
2023-03-14T18:24:55.118Z,2.72
2023-03-14T18:27:21.724Z,2.67
2023-03-14T18:29:48.376Z,2.66
2023-03-14T18:32:16.527Z,2.63
2023-03-14T18:34:43.191Z,2.62
2023-03-14T18:37:10.001Z,2.62
2023-03-14T18:39:36.762Z,2.65
2023-03-14T18:42:03.569Z,2.62
2023-03-14T18:44:30.227Z,2.63
2023-03-14T18:46:56.876Z,2.63
2023-03-14T18:49:23.574Z,2.59
2023-03-14T18:51:51.007Z,2.58
2023-03-14T18:54:17.678Z,2.54
2023-03-14T18:56:44.288Z,2.52
2023-03-14T18:59:11.337Z,2.51
2023-03-14T19:01:38.591Z,2.48
2023-03-14T19:04:08.856Z,2.48
2023-03-14T19:06:37.164Z,2.49
2023-03-14T19:09:06.060Z,2.51
2023-03-14T19:11:32.799Z,2.50
2023-03-14T19:14:00.027Z,2.54
2023-03-14T19:16:26.984Z,2.56
2023-03-14T19:18:55.659Z,2.58
2023-03-14T19:21:40.571Z,2.57
2023-03-14T19:24:07.471Z,2.59
2023-03-14T19:26:36.001Z,2.60
2023-03-14T19:29:03.294Z,2.63
2023-03-14T19:31:30.095Z,2.67
2023-03-14T19:33:56.921Z,2.64
2023-03-14T19:36:29.037Z,2.63
2023-03-14T19:38:56.344Z,2.65
2023-03-14T19:41:25.049Z,2.68
2023-03-14T19:43:52.556Z,2.70
2023-03-14T19:46:19.724Z,2.69
2023-03-14T19:48:46.716Z,2.66
2023-03-14T19:51:14.163Z,2.62
2023-03-14T19:53:42.099Z,2.60
2023-03-14T19:56:10.095Z,2.55
2023-03-14T19:58:39.550Z,2.51
2023-03-14T20:01:07.799Z,2.47
2023-03-14T20:03:37.417Z,2.42
2023-03-14T20:06:04.737Z,2.40
2023-03-14T20:08:31.414Z,2.38
2023-03-14T20:10:58.130Z,2.39
2023-03-14T20:13:25.248Z,2.39
2023-03-14T20:15:53.197Z,2.39
2023-03-14T20:18:19.966Z,2.43
2023-03-14T20:20:46.708Z,2.39
2023-03-14T20:23:14.524Z,2.39
2023-03-14T20:25:41.871Z,2.41
2023-03-14T20:28:08.613Z,2.41
2023-03-14T20:30:35.353Z,2.46
2023-03-14T20:33:05.019Z,2.49
2023-03-14T20:35:31.882Z,2.47
2023-03-14T20:37:58.650Z,2.50
2023-03-14T20:40:28.753Z,2.50
2023-03-14T20:42:56.007Z,2.48
2023-03-14T20:45:22.947Z,2.49
2023-03-14T20:47:50.301Z,2.52
2023-03-14T20:50:17.143Z,2.51
2023-03-14T20:52:43.843Z,2.53
2023-03-14T20:55:10.982Z,2.50
2023-03-14T20:57:37.733Z,2.51
2023-03-14T21:00:07.792Z,2.49
2023-03-14T21:02:35.316Z,2.50
2023-03-14T21:05:02.505Z,2.50
2023-03-14T21:07:34.458Z,2.48
2023-03-14T21:10:01.186Z,2.48
2023-03-14T21:12:27.850Z,2.49
2023-03-14T21:14:54.570Z,2.48
2023-03-14T21:17:21.216Z,2.51
2023-03-14T21:19:47.985Z,2.53
2023-03-14T21:22:18.586Z,2.54
2023-03-14T21:24:46.202Z,2.54
2023-03-14T21:27:12.843Z,2.52
2023-03-14T21:29:39.775Z,2.48
2023-03-14T21:32:06.788Z,2.49
2023-03-14T21:34:33.973Z,2.47
2023-03-14T21:37:00.685Z,2.48
2023-03-14T21:39:27.511Z,2.46
2023-03-14T21:41:54.249Z,2.45
2023-03-14T21:44:21.807Z,2.44
2023-03-14T21:46:49.111Z,2.41
2023-03-14T21:49:17.242Z,2.40
2023-03-14T21:51:47.194Z,2.39
2023-03-14T21:54:15.521Z,2.34
2023-03-14T21:56:43.690Z,2.36
2023-03-14T21:59:11.476Z,2.38
2023-03-14T22:01:38.333Z,2.36
2023-03-14T22:04:05.261Z,2.32
2023-03-14T22:06:32.655Z,2.32
2023-03-14T22:08:59.420Z,2.31
2023-03-14T22:11:26.817Z,2.31
2023-03-14T22:13:53.768Z,2.27
2023-03-14T22:16:20.680Z,2.25
2023-03-14T22:18:47.428Z,2.23
2023-03-14T22:21:14.222Z,2.19
2023-03-14T22:23:40.916Z,2.15
2023-03-14T22:26:07.628Z,2.21
2023-03-14T22:28:34.362Z,2.18
2023-03-14T22:31:03.377Z,2.18
2023-03-14T22:33:31.498Z,2.18
2023-03-14T22:35:58.293Z,2.14
2023-03-14T22:38:25.368Z,2.11
2023-03-14T22:40:52.101Z,2.09
2023-03-14T22:43:18.832Z,2.06
2023-03-14T22:45:46.215Z,2.00
2023-03-14T22:48:12.930Z,2.05
2023-03-14T22:50:40.397Z,2.05
2023-03-14T22:53:07.235Z,2.07
2023-03-14T22:55:34.043Z,2.05
2023-03-14T22:58:01.060Z,2.05
2023-03-14T23:00:29.473Z,2.00
2023-03-14T23:02:56.292Z,1.99
2023-03-14T23:05:23.342Z,1.95
2023-03-14T23:07:49.950Z,1.93
2023-03-14T23:10:17.159Z,1.90
2023-03-14T23:12:45.371Z,1.89
2023-03-14T23:15:18.194Z,1.86
2023-03-14T23:17:45.323Z,1.86
2023-03-14T23:20:13.009Z,1.81
2023-03-14T23:22:39.708Z,1.79
2023-03-14T23:25:07.117Z,1.75
2023-03-14T23:27:33.957Z,1.76
2023-03-14T23:30:01.060Z,1.77
2023-03-14T23:32:28.249Z,1.75
2023-03-14T23:34:55.071Z,1.72
2023-03-14T23:37:23.539Z,1.69
2023-03-14T23:39:50.488Z,1.68
2023-03-14T23:42:17.340Z,1.67
2023-03-14T23:44:44.091Z,1.65
2023-03-14T23:47:10.943Z,1.65
2023-03-14T23:49:37.634Z,1.71
2023-03-14T23:52:04.579Z,1.62
2023-03-14T23:54:31.264Z,1.64
2023-03-14T23:56:58.008Z,1.62
2023-03-14T23:59:25.574Z,1.61
